Time;durP1;ratioP1;P1;durP2;ratioP2;P2;SDS_P1;SDS_P2;PMS_P1;PMS_P2;Temp;Humidity;BMP_temperature;BMP_pressure;BME280_temperature;BME280_humidity;BME280_pressure;Samples;Min_cycle;Max_cycle;Signal;HPM_P1;HPM_P2
2022/03/05 03:46:43;;;;;;;45.47;24.60;;;3.90;84.70;;;;;;6282231;22;20208;-78
2022/03/05 03:49:08;;;;;;;48.20;23.88;;;3.80;84.60;;;;;;6265923;22;20007;-78
2022/03/05 03:51:34;;;;;;;47.75;24.98;;;3.80;85.00;;;;;;6265826;22;20062;-78
2022/03/05 03:54:00;;;;;;;48.10;25.65;;;3.80;85.20;;;;;;6317160;22;20295;-78
2022/03/05 03:56:26;;;;;;;51.95;26.52;;;3.70;85.10;;;;;;6291476;22;20039;-78
2022/03/05 03:58:51;;;;;;;57.83;28.05;;;3.70;85.20;;;;;;6317291;22;20015;-78
2022/03/05 04:01:17;;;;;;;46.28;25.08;;;3.70;85.80;;;;;;6265922;22;20049;-78
2022/03/05 04:03:43;;;;;;;49.75;27.08;;;3.60;85.70;;;;;;6291649;22;20026;-78
2022/03/05 04:06:09;;;;;;;51.00;25.75;;;3.60;86.00;;;;;;6266175;22;20014;-78
2022/03/05 04:08:43;;;;;;;54.90;29.00;;;3.50;86.60;;;;;;6240825;22;20049;-78
2022/03/05 04:11:14;;;;;;;60.13;32.72;;;3.50;86.50;;;;;;6269733;22;20034;-78
2022/03/05 04:13:40;;;;;;;54.58;29.17;;;3.40;86.80;;;;;;6291648;22;20184;-78
2022/03/05 04:16:06;;;;;;;55.73;30.63;;;3.40;87.50;;;;;;6291263;22;20027;-78
2022/03/05 04:18:33;;;;;;;64.28;32.75;;;3.40;87.10;;;;;;6266167;22;20019;-79
2022/03/05 04:21:00;;;;;;;72.88;37.38;;;3.30;88.10;;;;;;6291358;22;20029;-78
2022/03/05 04:23:25;;;;;;;68.70;35.60;;;3.30;88.00;;;;;;6291730;22;20007;-78
2022/03/05 04:25:51;;;;;;;64.75;33.17;;;3.30;88.30;;;;;;6291555;22;20014;-79
2022/03/05 04:28:17;;;;;;;53.30;29.50;;;3.30;88.60;;;;;;6266096;22;20344;-78
2022/03/05 04:30:43;;;;;;;54.72;29.17;;;3.30;88.50;;;;;;6265884;22;20011;-78
2022/03/05 04:33:10;;;;;;;50.40;26.50;;;3.20;89.50;;;;;;6240498;22;20017;-78
2022/03/05 04:35:36;;;;;;;;;;;3.20;89.10;;;;;;6266723;22;20017;-78
2022/03/05 04:38:02;;;;;;;47.58;25.35;;;3.20;89.00;;;;;;6317039;22;19903;-77
2022/03/05 04:40:28;;;;;;;49.38;26.65;;;3.20;88.70;;;;;;6317043;22;20034;-78
2022/03/05 04:42:54;;;;;;;49.25;26.15;;;3.20;89.20;;;;;;6265501;22;20042;-78
2022/03/05 04:45:20;;;;;;;47.90;25.63;;;3.20;90.20;;;;;;6290844;22;20007;-78
2022/03/05 04:47:46;;;;;;;49.22;26.98;;;3.10;89.70;;;;;;6265702;22;20043;-78
2022/03/05 04:50:11;;;;;;;56.65;27.27;;;3.20;89.70;;;;;;6265808;22;20037;-79
2022/03/05 04:52:38;;;;;;;61.72;33.25;;;3.30;89.10;;;;;;6265577;22;20033;-79
2022/03/05 04:55:05;;;;;;;56.97;28.52;;;3.30;89.20;;;;;;6291276;22;20049;-78
2022/03/05 04:57:31;;;;;;;54.80;29.63;;;3.30;89.00;;;;;;6265521;22;20033;-79
2022/03/05 04:59:59;;;;;;;52.08;27.65;;;3.30;88.80;;;;;;6265742;22;20207;-79
2022/03/05 05:02:25;;;;;;;48.22;26.60;;;3.30;89.60;;;;;;6290976;22;20015;-79
2022/03/05 05:04:51;;;;;;;49.22;26.48;;;3.30;89.30;;;;;;6316818;22;20048;-79
2022/03/05 05:07:17;;;;;;;53.65;27.38;;;3.30;89.10;;;;;;6265554;22;20017;-79
2022/03/05 05:09:43;;;;;;;54.67;26.23;;;3.30;89.60;;;;;;6265332;22;20011;-79
2022/03/05 05:12:10;;;;;;;53.38;27.92;;;3.30;89.80;;;;;;6316816;22;20038;-79
2022/03/05 05:14:36;;;;;;;54.85;26.88;;;3.30;89.40;;;;;;6291263;22;20062;-79
2022/03/05 05:17:02;;;;;;;49.78;26.50;;;3.30;89.60;;;;;;6290652;22;20011;-79
2022/03/05 05:19:28;;;;;;;48.08;25.33;;;3.30;89.40;;;;;;6291132;22;20003;-79
2022/03/05 05:21:59;;;;;;;57.80;27.08;;;3.40;89.20;;;;;;6290888;22;20007;-79
2022/03/05 05:24:27;;;;;;;47.72;25.58;;;3.40;89.10;;;;;;6316769;22;20003;-79
2022/03/05 05:26:54;;;;;;;53.55;28.20;;;3.40;89.40;;;;;;6290836;22;20206;-79
2022/03/05 05:29:21;;;;;;;50.67;27.08;;;3.40;89.20;;;;;;6291022;22;20011;-78
2022/03/05 05:31:46;;;;;;;55.35;28.52;;;3.40;89.00;;;;;;6291050;22;20007;-78
2022/03/05 05:34:12;;;;;;;56.30;27.40;;;3.40;89.10;;;;;;6265293;22;19992;-78
2022/03/05 05:36:38;;;;;;;54.05;27.98;;;3.40;89.10;;;;;;6264983;22;20011;-78
2022/03/05 05:39:09;;;;;;;48.28;28.35;;;3.40;88.90;;;;;;6316658;22;20053;-78
2022/03/05 05:41:35;;;;;;;54.38;28.27;;;3.40;88.80;;;;;;6290276;22;20195;-78
2022/03/05 05:44:06;;;;;;;50.33;28.33;;;3.50;88.80;;;;;;6290845;22;20014;-78
2022/03/05 05:46:33;;;;;;;50.65;27.35;;;3.50;88.70;;;;;;6290281;22;20234;-78
2022/03/05 05:48:58;;;;;;;49.53;26.83;;;3.50;88.70;;;;;;6316437;22;20006;-78
2022/03/05 05:51:29;;;;;;;49.78;27.02;;;3.40;88.80;;;;;;6264585;22;20007;-79
2022/03/05 05:53:56;;;;;;;46.13;26.25;;;3.50;88.90;;;;;;6264786;22;20315;-79
2022/03/05 05:56:23;;;;;;;47.55;25.80;;;3.50;88.70;;;;;;6290669;22;20007;-79
2022/03/05 05:58:49;;;;;;;49.20;27.50;;;3.50;88.50;;;;;;6264908;22;20078;-79
2022/03/05 06:01:17;;;;;;;47.42;26.77;;;3.60;88.40;;;;;;6290918;22;20014;-79
2022/03/05 06:03:44;;;;;;;50.72;27.27;;;3.60;88.20;;;;;;6290337;22;20010;-79
2022/03/05 06:06:13;;;;;;;;;;;3.60;88.00;;;;;;6291159;22;20184;-79
2022/03/05 06:08:39;;;;;;;46.88;26.10;;;3.60;88.30;;;;;;6290309;22;19989;-79
2022/03/05 06:11:05;;;;;;;50.00;25.83;;;3.70;88.00;;;;;;6265050;22;20027;-78
2022/03/05 06:13:31;;;;;;;53.50;27.15;;;3.70;88.30;;;;;;6239583;22;20011;-78
2022/03/05 06:15:57;;;;;;;47.85;25.10;;;3.60;88.20;;;;;;6265036;22;20018;-78
2022/03/05 06:18:22;;;;;;;48.00;25.13;;;3.60;88.40;;;;;;6264595;22;20063;-78
2022/03/05 06:20:49;;;;;;;47.38;26.35;;;3.70;88.40;;;;;;6290517;22;20008;-78
2022/03/05 06:23:14;;;;;;;49.17;27.20;;;3.70;88.20;;;;;;6290296;22;20023;-79
2022/03/05 06:25:40;;;;;;;49.58;25.75;;;3.70;88.00;;;;;;6239300;22;20013;-78
2022/03/05 06:28:06;;;;;;;56.67;27.20;;;3.70;88.00;;;;;;6290237;22;20052;-78
2022/03/05 06:30:32;;;;;;;50.63;25.17;;;3.80;87.90;;;;;;6265207;22;20241;-78
2022/03/05 06:32:58;;;;;;;49.22;25.75;;;3.80;87.70;;;;;;6290085;22;20038;-78
2022/03/05 06:35:24;;;;;;;42.67;24.30;;;3.80;87.60;;;;;;6290125;22;20258;-78
2022/03/05 06:37:50;;;;;;;48.33;25.95;;;3.90;87.60;;;;;;6264650;22;20018;-78
2022/03/05 06:40:18;;;;;;;47.10;25.40;;;4.00;87.30;;;;;;6239173;22;20007;-77
2022/03/05 06:42:47;;;;;;;50.08;26.20;;;4.00;87.00;;;;;;6239532;22;20022;-78
2022/03/05 06:45:13;;;;;;;46.63;25.05;;;4.00;86.70;;;;;;6265601;22;19998;-78
2022/03/05 06:47:39;;;;;;;44.20;25.75;;;4.00;86.70;;;;;;6289071;22;20015;-78
2022/03/05 06:50:08;;;;;;;53.15;27.17;;;4.10;86.50;;;;;;6314780;22;20000;-78
2022/03/05 06:52:34;;;;;;;47.17;26.55;;;4.10;86.50;;;;;;6289171;22;20026;-79
2022/03/05 06:55:00;;;;;;;50.00;25.98;;;4.30;86.70;;;;;;6238543;22;20027;-78
2022/03/05 06:57:26;;;;;;;48.10;26.13;;;4.30;85.90;;;;;;6289450;22;20007;-78
2022/03/05 06:59:53;;;;;;;47.87;26.07;;;4.40;85.60;;;;;;6289205;22;20007;-78
2022/03/05 07:02:19;;;;;;;44.75;25.25;;;4.50;85.20;;;;;;6289177;22;20286;-78
2022/03/05 07:04:45;;;;;;;46.47;25.38;;;4.60;84.60;;;;;;6315011;22;20022;-78
2022/03/05 07:07:10;;;;;;;47.08;25.98;;;4.70;84.30;;;;;;6263725;22;20200;-77
2022/03/05 07:09:36;;;;;;;43.17;25.02;;;4.80;84.40;;;;;;6263282;22;19995;-78
2022/03/05 07:12:03;;;;;;;46.42;26.20;;;4.80;83.90;;;;;;6289127;22;20150;-78
2022/03/05 07:14:29;;;;;;;44.60;24.35;;;5.00;83.40;;;;;;6263644;22;20014;-78
2022/03/05 07:16:55;;;;;;;47.22;26.50;;;5.00;82.90;;;;;;6238112;22;20027;-78
2022/03/05 07:19:21;;;;;;;50.47;26.85;;;5.10;82.60;;;;;;6288940;22;20049;-78
2022/03/05 07:21:46;;;;;;;49.20;26.17;;;5.20;82.20;;;;;;6315014;22;20015;-78
2022/03/05 07:24:13;;;;;;;46.00;24.92;;;5.30;82.40;;;;;;6289069;22;19995;-78
2022/03/05 07:26:39;;;;;;;46.60;26.10;;;5.40;81.80;;;;;;6316307;22;20006;-80
2022/03/05 07:29:06;;;;;;;47.77;25.27;;;5.50;81.10;;;;;;6314905;22;20009;-78
2022/03/05 07:31:32;;;;;;;45.65;25.73;;;5.60;81.00;;;;;;6289126;22;20015;-78
2022/03/05 07:33:57;;;;;;;46.25;25.55;;;5.60;80.60;;;;;;6263093;22;20031;-78
2022/03/05 07:36:23;;;;;;;44.25;25.23;;;5.70;80.10;;;;;;6238385;22;20053;-78
2022/03/05 07:38:51;;;;;;;47.10;25.13;;;5.80;79.70;;;;;;6288829;22;20027;-78
2022/03/05 07:41:18;;;;;;;42.28;24.75;;;6.00;79.60;;;;;;6264089;22;20007;-78
2022/03/05 07:43:44;;;;;;;42.53;24.38;;;6.10;78.60;;;;;;6288771;22;20003;-79
2022/03/05 07:46:10;;;;;;;37.88;24.27;;;6.00;78.10;;;;;;6288327;22;20022;-78
2022/03/05 07:48:35;;;;;;;47.20;24.80;;;6.10;78.20;;;;;;6263408;22;20086;-78
2022/03/05 07:51:02;;;;;;;42.78;23.88;;;6.10;77.10;;;;;;6314713;22;20032;-78
2022/03/05 07:53:31;;;;;;;38.80;22.85;;;6.00;77.20;;;;;;6238504;22;20011;-78
2022/03/05 07:55:57;;;;;;;38.70;23.20;;;6.20;78.00;;;;;;6314851;22;20050;-78
2022/03/05 07:58:23;;;;;;;40.17;22.77;;;6.10;76.00;;;;;;6289164;22;20000;-79
2022/03/05 08:00:49;;;;;;;42.97;24.08;;;6.10;76.60;;;;;;6289046;22;20015;-78
2022/03/05 08:03:15;;;;;;;41.22;23.60;;;6.20;77.10;;;;;;6262637;22;20007;-80
2022/03/05 08:05:42;;;;;;;39.33;22.65;;;6.40;77.10;;;;;;6239336;22;20071;-79
2022/03/05 08:08:08;;;;;;;37.58;20.48;;;6.50;75.50;;;;;;6290806;22;20003;-79
2022/03/05 08:10:34;;;;;;;40.33;22.98;;;6.60;75.00;;;;;;6264771;22;20043;-79
2022/03/05 08:13:00;;;;;;;36.83;21.25;;;6.60;73.70;;;;;;6316077;22;20011;-79
2022/03/05 08:15:26;;;;;;;36.80;22.42;;;6.50;74.40;;;;;;6239217;22;20019;-79
2022/03/05 08:17:57;;;;;;;44.78;22.75;;;6.50;73.70;;;;;;6315321;22;20023;-79
2022/03/05 08:20:24;;;;;;;36.65;21.05;;;6.30;74.80;;;;;;6316896;22;19999;-79
2022/03/05 08:22:51;;;;;;;39.72;22.15;;;6.40;75.30;;;;;;6289712;22;20011;-78
2022/03/05 08:25:17;;;;;;;45.65;22.08;;;6.50;74.20;;;;;;6315482;22;20022;-78
2022/03/05 08:27:43;;;;;;;40.50;22.67;;;6.50;73.90;;;;;;6290260;22;20206;-78
2022/03/05 08:30:11;;;;;;;40.67;22.33;;;6.50;74.40;;;;;;6289455;22;20025;-79
2022/03/05 08:32:37;;;;;;;37.63;22.63;;;6.60;74.80;;;;;;6264303;22;20019;-79
2022/03/05 08:35:05;;;;;;;41.25;22.83;;;6.80;74.20;;;;;;6291106;22;20014;-79
2022/03/05 08:37:31;;;;;;;39.35;23.52;;;6.80;73.90;;;;;;6265467;22;20023;-79
2022/03/05 08:39:57;;;;;;;36.38;22.50;;;7.00;73.60;;;;;;6290176;22;19995;-79
2022/03/05 08:42:24;;;;;;;39.00;22.35;;;7.20;72.90;;;;;;6290804;22;20022;-79
2022/03/05 08:44:50;;;;;;;39.67;23.15;;;7.40;72.30;;;;;;6290487;22;20003;-79
2022/03/05 08:47:16;;;;;;;39.22;24.08;;;7.60;71.20;;;;;;6290140;22;20027;-78
2022/03/05 08:49:41;;;;;;;39.50;23.75;;;7.60;71.30;;;;;;6315983;22;20206;-78
2022/03/05 08:52:08;;;;;;;38.35;23.25;;;7.70;70.20;;;;;;6265192;22;20015;-79
2022/03/05 08:54:34;;;;;;;39.35;23.13;;;7.70;70.70;;;;;;6290747;22;20007;-79
2022/03/05 08:57:00;;;;;;;40.67;23.25;;;7.80;70.00;;;;;;6290465;22;20070;-79
2022/03/05 08:59:26;;;;;;;40.90;24.55;;;7.60;69.60;;;;;;6264942;22;20015;-79
2022/03/05 09:01:52;;;;;;;41.53;23.80;;;7.40;70.80;;;;;;6264665;22;20299;-79
2022/03/05 09:04:18;;;;;;;41.40;24.30;;;7.70;71.90;;;;;;6315892;22;20048;-79
2022/03/05 09:06:44;;;;;;;35.88;22.45;;;7.90;69.60;;;;;;6264846;22;20014;-78
2022/03/05 09:09:10;;;;;;;45.17;24.77;;;7.80;69.80;;;;;;6264829;22;20019;-79
2022/03/05 09:11:37;;;;;;;39.78;23.30;;;8.00;69.20;;;;;;6290008;22;20010;-79
2022/03/05 09:14:07;;;;;;;40.35;23.67;;;8.20;69.30;;;;;;6290120;22;20014;-80
2022/03/05 09:16:38;;;;;;;37.25;24.02;;;8.40;69.20;;;;;;6263668;22;20022;-78
2022/03/05 09:19:04;;;;;;;38.55;23.13;;;8.70;68.20;;;;;;6290343;22;20021;-79
2022/03/05 09:21:31;;;;;;;37.75;23.67;;;8.90;68.10;;;;;;6315192;22;20003;-79
2022/03/05 09:23:57;;;;;;;46.83;24.80;;;8.90;65.80;;;;;;6290333;22;20007;-80
2022/03/05 09:26:23;;;;;;;43.22;24.85;;;8.60;65.80;;;;;;6264674;22;20229;-79
2022/03/05 09:28:50;;;;;;;38.35;23.60;;;8.50;67.50;;;;;;6290152;22;20026;-79
2022/03/05 09:31:17;;;;;;;38.67;23.88;;;8.80;67.90;;;;;;6315748;22;20349;-79
2022/03/05 09:33:42;;;;;;;38.83;23.95;;;9.00;66.00;;;;;;6264778;22;20057;-79
2022/03/05 09:36:09;;;;;;;42.08;25.27;;;8.70;65.00;;;;;;6289806;22;20007;-79
2022/03/05 09:38:35;;;;;;;43.00;24.23;;;8.70;65.50;;;;;;6289809;22;20196;-79
2022/03/05 09:41:04;;;;;;;38.30;24.43;;;8.90;66.30;;;;;;6264682;22;20330;-79
2022/03/05 09:43:30;;;;;;;44.70;25.98;;;8.90;63.40;;;;;;6263768;22;20331;-79
2022/03/05 09:46:00;;;;;;;41.70;26.48;;;8.90;63.70;;;;;;6289285;22;20015;-80
2022/03/05 09:48:27;;;;;;;46.58;26.17;;;9.10;65.00;;;;;;6290013;22;20007;-80
2022/03/05 09:50:54;;;;;;;40.17;24.23;;;9.20;63.40;;;;;;6315515;22;20007;-78
2022/03/05 09:53:23;;;;;;;41.20;23.85;;;9.20;62.80;;;;;;6264009;22;20052;-79
2022/03/05 09:55:49;;;;;;;40.78;24.75;;;9.20;63.90;;;;;;6264608;22;20070;-79
2022/03/05 09:58:16;;;;;;;38.15;23.58;;;9.20;62.30;;;;;;6314594;22;20003;-79
2022/03/05 10:00:44;;;;;;;38.83;25.20;;;9.10;62.70;;;;;;6289130;22;20004;-79
2022/03/05 10:03:13;;;;;;;43.90;25.20;;;9.20;63.20;;;;;;6289511;22;20017;-79
2022/03/05 10:05:39;;;;;;;37.38;23.42;;;9.30;61.70;;;;;;6287476;22;20370;-79
2022/03/05 10:08:12;;;;;;;33.75;22.33;;;9.20;61.20;;;;;;6264432;22;20026;-79
2022/03/05 10:10:40;;;;;;;36.03;22.45;;;9.30;59.90;;;;;;6314736;22;20010;-79
2022/03/05 10:13:28;;;;;;;36.05;20.92;;;9.20;59.90;;;;;;6314696;22;20225;-79
2022/03/05 10:15:57;;;;;;;31.65;19.92;;;9.40;60.00;;;;;;6315578;22;20003;-79
2022/03/05 10:18:34;;;;;;;38.75;21.60;;;9.70;57.10;;;;;;6289585;22;20008;-80
2022/03/05 10:21:02;;;;;;;39.05;22.90;;;10.00;57.50;;;;;;6289855;22;20365;-80
2022/03/05 10:23:32;;;;;;;36.40;21.23;;;9.90;57.30;;;;;;6263826;22;19995;-78
2022/03/05 10:26:01;;;;;;;39.22;23.05;;;9.80;58.20;;;;;;6315307;22;20004;-78
2022/03/05 10:28:28;;;;;;;36.97;21.73;;;9.80;58.90;;;;;;6290000;22;20022;-79
2022/03/05 10:31:03;;;;;;;34.75;20.30;;;10.10;58.30;;;;;;6289861;22;20311;-78
2022/03/05 10:33:38;;;;;;;35.08;20.25;;;10.40;57.00;;;;;;6315525;22;20076;-79
2022/03/05 10:36:25;;;;;;;36.63;20.70;;;10.30;55.00;;;;;;6315470;22;20307;-78
2022/03/05 10:38:59;;;;;;;37.30;21.58;;;10.20;54.40;;;;;;6315950;22;20007;-80
2022/03/05 10:41:35;;;;;;;35.17;20.63;;;9.80;55.60;;;;;;6290343;22;20011;-80
2022/03/05 10:44:15;;;;;;;31.63;18.73;;;9.50;56.70;;;;;;6316787;22;20009;-80
2022/03/05 10:46:47;;;;;;;36.85;21.23;;;9.10;56.60;;;;;;6290151;22;20011;-80
2022/03/05 10:49:22;;;;;;;37.22;21.77;;;8.80;58.20;;;;;;6290347;22;20211;-80
2022/03/05 10:52:03;;;;;;;38.95;22.35;;;8.80;58.70;;;;;;6316439;22;20354;-80
2022/03/05 10:54:42;;;;;;;33.83;20.85;;;8.70;58.20;;;;;;6296414;22;20045;-79
2022/03/05 10:57:14;;;;;;;41.80;22.63;;;8.70;59.30;;;;;;6304963;22;20010;-79
2022/03/05 10:59:42;;;;;;;35.47;21.20;;;8.70;59.20;;;;;;6318748;22;20302;-79
2022/03/05 11:02:11;;;;;;;37.05;21.02;;;8.60;57.90;;;;;;6319067;22;20030;-78
2022/03/05 11:04:39;;;;;;;32.08;19.05;;;8.60;57.80;;;;;;6292929;22;19987;-78
2022/03/05 11:07:07;;;;;;;31.38;19.52;;;8.60;57.30;;;;;;6293380;22;20007;-79
2022/03/05 11:09:35;;;;;;;34.85;20.13;;;8.70;58.00;;;;;;6318328;22;20038;-79
2022/03/05 11:12:02;;;;;;;35.70;20.73;;;8.70;58.00;;;;;;6318750;22;20014;-80
2022/03/05 11:14:28;;;;;;;34.55;21.17;;;8.70;57.50;;;;;;6316972;22;20350;-80
2022/03/05 11:16:56;;;;;;;35.85;21.02;;;8.80;58.20;;;;;;6263467;22;20027;-79
2022/03/05 11:19:27;;;;;;;31.85;19.25;;;8.80;57.60;;;;;;6314529;22;20299;-80
2022/03/05 11:21:53;;;;;;;30.08;18.05;;;8.90;57.60;;;;;;6264862;22;20023;-80
2022/03/05 11:24:21;;;;;;;32.70;18.88;;;8.90;56.40;;;;;;6289056;22;20299;-80
2022/03/05 11:26:52;;;;;;;30.90;17.83;;;8.90;56.10;;;;;;6314404;22;20003;-78
2022/03/05 11:29:19;;;;;;;28.85;17.85;;;9.00;56.60;;;;;;6288943;22;20294;-79
2022/03/05 11:31:47;;;;;;;40.03;20.67;;;9.10;56.50;;;;;;6238238;22;20015;-79
2022/03/05 11:34:21;;;;;;;36.13;20.20;;;9.10;56.00;;;;;;6289264;22;20003;-79
2022/03/05 11:36:49;;;;;;;33.22;19.20;;;9.10;56.20;;;;;;6314986;22;19999;-79
2022/03/05 11:39:28;;;;;;;30.20;18.52;;;9.20;56.90;;;;;;6289525;22;20011;-79
2022/03/05 11:42:10;;;;;;;32.60;17.65;;;9.20;55.20;;;;;;6290835;22;20004;-78
2022/03/05 11:44:42;;;;;;;29.50;16.98;;;9.10;54.40;;;;;;6290967;22;20010;-80
2022/03/05 11:47:26;;;;;;;28.10;17.17;;;9.00;54.10;;;;;;6315782;22;20037;-79
2022/03/05 11:49:58;;;;;;;26.58;16.67;;;9.00;54.50;;;;;;6290997;22;20003;-79
2022/03/05 11:52:40;;;;;;;27.08;16.10;;;9.00;54.20;;;;;;6290900;22;20013;-80
2022/03/05 11:55:14;;;;;;;32.10;18.17;;;9.00;53.10;;;;;;6290773;22;20007;-80
2022/03/05 11:58:06;;;;;;;31.40;17.27;;;8.90;54.20;;;;;;6315998;22;20015;-79
2022/03/05 12:00:34;;;;;;;25.33;14.63;;;8.90;54.10;;;;;;6172892;23;20016;-79
2022/03/05 12:03:01;;;;;;;21.00;13.45;;;8.90;54.00;;;;;;6148889;23;20067;-79
2022/03/05 12:05:32;;;;;;;;;;;8.90;53.10;;;;;;6197919;23;20208;-79
2022/03/05 12:07:59;;;;;;;22.92;12.88;;;8.90;52.80;;;;;;6198565;23;19942;-79
2022/03/05 12:10:25;;;;;;;20.75;12.75;;;8.80;51.90;;;;;;6173682;23;20028;-79
2022/03/05 12:12:53;;;;;;;22.85;13.52;;;8.90;51.50;;;;;;6148411;23;20032;-78
2022/03/05 12:15:27;;;;;;;29.05;16.23;;;8.90;52.20;;;;;;6197769;23;20086;-79
2022/03/05 12:17:53;;;;;;;26.20;16.95;;;9.00;53.90;;;;;;6197491;23;20385;-79
2022/03/05 12:20:26;;;;;;;;;;;9.10;53.60;;;;;;6149777;23;20027;-79
2022/03/05 12:23:00;;;;;;;20.55;12.13;;;9.10;54.20;;;;;;6223767;23;19900;-80
2022/03/05 12:25:28;;;;;;;20.98;12.50;;;9.20;51.10;;;;;;6198020;23;20012;-80
2022/03/05 12:27:55;;;;;;;18.50;11.05;;;9.20;51.50;;;;;;6223159;23;20013;-79
2022/03/05 12:30:23;;;;;;;17.38;10.38;;;9.10;48.40;;;;;;6198151;23;19992;-79
2022/03/05 12:32:51;;;;;;;17.30;11.30;;;8.90;49.70;;;;;;6198228;23;20013;-79
2022/03/05 12:35:17;;;;;;;21.27;12.93;;;8.90;49.60;;;;;;6149160;23;20012;-79
2022/03/05 12:37:44;;;;;;;24.20;15.30;;;8.80;51.20;;;;;;6216350;22;20314;-79
2022/03/05 12:40:12;;;;;;;28.92;15.85;;;8.90;52.10;;;;;;6264623;22;20019;-79
2022/03/05 12:42:42;;;;;;;30.20;18.42;;;8.80;55.60;;;;;;6289893;22;20109;-79
2022/03/05 12:45:24;;;;;;;41.80;18.02;;;8.50;59.30;;;;;;6315854;22;20018;-79
2022/03/05 12:47:51;;;;;;;28.73;16.38;;;8.20;61.50;;;;;;6317146;22;20007;-80
2022/03/05 12:50:29;;;;;;;32.90;15.98;;;7.90;64.20;;;;;;6290398;22;20057;-79
2022/03/05 12:52:54;;;;;;;33.13;17.48;;;7.60;67.10;;;;;;6316262;22;20007;-80
2022/03/05 12:55:20;;;;;;;31.45;16.02;;;7.20;68.20;;;;;;6316344;22;20104;-79
2022/03/05 12:57:47;;;;;;;27.60;14.73;;;7.10;69.20;;;;;;6264253;22;20079;-80
2022/03/05 13:00:14;;;;;;;25.93;14.17;;;7.10;70.20;;;;;;6290630;22;20059;-79
2022/03/05 13:02:39;;;;;;;22.27;12.68;;;6.90;68.50;;;;;;6290700;22;20449;-79
2022/03/05 13:05:13;;;;;;;17.10;10.80;;;6.90;67.30;;;;;;6263787;22;20008;-79
2022/03/05 13:07:39;;;;;;;18.40;11.27;;;7.00;65.90;;;;;;6290155;22;20018;-79
2022/03/05 13:10:09;;;;;;;17.10;9.75;;;7.00;66.00;;;;;;6263622;22;20210;-79
2022/03/05 13:12:39;;;;;;;15.35;9.48;;;7.00;63.50;;;;;;6289223;22;20007;-79
2022/03/05 13:15:06;;;;;;;15.98;9.75;;;6.90;62.60;;;;;;6263708;22;20038;-79
2022/03/05 13:17:33;;;;;;;16.38;9.35;;;6.90;62.80;;;;;;6263810;22;20015;-80
2022/03/05 13:20:04;;;;;;;14.85;9.75;;;6.90;62.70;;;;;;6238471;22;20184;-80
2022/03/05 13:22:30;;;;;;;19.17;10.07;;;7.00;62.50;;;;;;6263666;22;20003;-79
2022/03/05 13:24:56;;;;;;;18.00;10.20;;;7.10;62.70;;;;;;6263372;22;20026;-79
2022/03/05 13:27:26;;;;;;;17.35;10.52;;;7.10;62.20;;;;;;6289144;22;20011;-80
2022/03/05 13:29:53;;;;;;;19.55;11.15;;;7.20;63.30;;;;;;6263211;22;20007;-80
2022/03/05 13:32:19;;;;;;;20.23;10.57;;;7.30;62.80;;;;;;6237919;22;20011;-79
2022/03/05 13:34:46;;;;;;;22.15;10.50;;;7.30;61.20;;;;;;6314554;22;20088;-79
2022/03/05 13:37:12;;;;;;;14.32;8.95;;;7.40;60.00;;;;;;6239399;22;20046;-79
2022/03/05 13:39:38;;;;;;;19.77;10.32;;;7.40;60.50;;;;;;6289854;22;20011;-80
2022/03/05 13:42:18;;;;;;;17.45;11.13;;;7.40;58.90;;;;;;6264536;22;20004;-78
2022/03/05 13:44:45;;;;;;;22.02;11.32;;;7.40;60.50;;;;;;6289883;22;20007;-78
2022/03/05 13:47:11;;;;;;;18.88;11.75;;;7.50;60.10;;;;;;6263638;22;20206;-78
2022/03/05 13:49:39;;;;;;;21.38;10.60;;;7.40;59.80;;;;;;6289076;22;20047;-79
2022/03/05 13:52:14;;;;;;;23.77;11.85;;;7.40;59.60;;;;;;6265395;22;20294;-79
2022/03/05 13:54:47;;;;;;;22.30;11.65;;;7.50;60.80;;;;;;6315588;22;20014;-79
2022/03/05 13:57:26;;;;;;;20.08;10.57;;;7.50;60.10;;;;;;6315553;22;20007;-79
2022/03/05 13:59:52;;;;;;;17.52;9.75;;;7.50;58.70;;;;;;6289168;22;20003;-80
2022/03/05 14:02:18;;;;;;;18.25;10.40;;;7.60;59.60;;;;;;6288477;22;20002;-80
2022/03/05 14:04:57;;;;;;;21.67;11.05;;;7.70;59.30;;;;;;6263152;22;20007;-80
2022/03/05 14:07:23;;;;;;;19.88;10.68;;;7.90;59.60;;;;;;6289446;22;20060;-79
2022/03/05 14:09:49;;;;;;;16.85;9.63;;;7.90;59.80;;;;;;6289592;22;20294;-80
2022/03/05 14:12:20;;;;;;;22.50;10.25;;;8.10;59.50;;;;;;6289677;22;20022;-80
2022/03/05 14:14:46;;;;;;;19.08;11.48;;;8.10;58.70;;;;;;6288567;22;20045;-78
2022/03/05 14:17:41;;;;;;;20.25;10.32;;;8.10;59.00;;;;;;6289373;22;20090;-79
2022/03/05 14:20:20;;;;;;;21.33;10.60;;;8.10;57.60;;;;;;6314404;22;20314;-79
2022/03/05 14:23:01;;;;;;;18.95;10.57;;;7.90;58.10;;;;;;6315478;22;20015;-78
2022/03/05 14:25:31;;;;;;;19.52;11.40;;;7.90;57.70;;;;;;6289647;22;20062;-79
2022/03/05 14:27:59;;;;;;;18.08;9.68;;;7.90;58.10;;;;;;6315320;22;20049;-79
2022/03/05 14:30:28;;;;;;;18.75;10.77;;;7.90;57.90;;;;;;6315172;22;20052;-79
2022/03/05 14:32:55;;;;;;;19.10;11.60;;;7.90;58.40;;;;;;6315080;22;20321;-79
2022/03/05 14:35:22;;;;;;;20.58;12.57;;;7.80;58.10;;;;;;6316583;22;20066;-79
2022/03/05 14:37:49;;;;;;;23.85;14.10;;;7.70;58.90;;;;;;6263822;22;20035;-79
2022/03/05 14:40:18;;;;;;;29.63;14.63;;;7.60;59.00;;;;;;6263662;22;20002;-79
2022/03/05 14:42:45;;;;;;;24.13;13.73;;;7.50;58.80;;;;;;6289357;22;20314;-79
2022/03/05 14:45:13;;;;;;;20.53;13.50;;;7.40;58.90;;;;;;6288767;22;20003;-80
2022/03/05 14:47:40;;;;;;;21.20;12.75;;;7.30;59.20;;;;;;6288963;22;20011;-80
2022/03/05 14:50:09;;;;;;;23.63;12.35;;;7.20;59.00;;;;;;6315023;22;19999;-80
2022/03/05 14:52:35;;;;;;;24.40;13.52;;;7.20;59.40;;;;;;6289731;22;20057;-80
2022/03/05 14:55:02;;;;;;;21.05;11.95;;;7.30;59.60;;;;;;6288922;22;20239;-80
2022/03/05 14:57:28;;;;;;;22.05;12.55;;;7.30;59.10;;;;;;6263660;22;20011;-80
2022/03/05 14:59:54;;;;;;;19.83;11.50;;;7.30;59.00;;;;;;6263779;22;20059;-79
2022/03/05 15:02:20;;;;;;;23.20;12.15;;;7.30;59.20;;;;;;6238468;22;20199;-79
2022/03/05 15:04:46;;;;;;;19.85;11.20;;;7.30;58.90;;;;;;6263386;22;20007;-79
2022/03/05 15:07:12;;;;;;;21.33;12.05;;;7.30;58.90;;;;;;6315055;22;20006;-79
2022/03/05 15:09:39;;;;;;;19.92;12.27;;;7.30;58.70;;;;;;6263434;22;20073;-79
2022/03/05 15:12:05;;;;;;;22.03;11.73;;;7.40;58.50;;;;;;6263521;22;20015;-79
2022/03/05 15:14:35;;;;;;;26.05;13.05;;;7.40;58.40;;;;;;6290494;22;20019;-79
2022/03/05 15:17:04;;;;;;;21.80;13.02;;;7.40;58.10;;;;;;6291091;22;20003;-79
2022/03/05 15:19:30;;;;;;;21.90;12.88;;;7.50;59.00;;;;;;6290807;22;20010;-80
2022/03/05 15:21:56;;;;;;;22.40;13.15;;;7.60;57.90;;;;;;6316469;22;20287;-79
2022/03/05 15:24:22;;;;;;;22.13;13.10;;;7.60;56.80;;;;;;6316714;22;19992;-79
2022/03/05 15:26:48;;;;;;;25.88;14.07;;;7.60;57.10;;;;;;6316748;22;19996;-79
2022/03/05 15:29:13;;;;;;;22.73;13.48;;;7.50;56.20;;;;;;6318262;22;20014;-79
2022/03/05 15:31:39;;;;;;;21.20;12.55;;;7.50;56.50;;;;;;6265485;22;20023;-79
2022/03/05 15:34:05;;;;;;;22.85;13.45;;;7.50;57.10;;;;;;6264964;22;20001;-80
2022/03/05 15:36:31;;;;;;;21.43;12.40;;;7.50;56.60;;;;;;6265473;22;20011;-79
2022/03/05 15:38:58;;;;;;;20.77;11.57;;;7.50;56.30;;;;;;6290733;22;20176;-80
2022/03/05 15:41:24;;;;;;;31.83;13.10;;;7.40;56.10;;;;;;6263415;22;20026;-79
2022/03/05 15:43:50;;;;;;;31.75;11.73;;;7.30;55.50;;;;;;6315574;22;20052;-79
2022/03/05 15:46:16;;;;;;;25.55;12.15;;;7.30;55.80;;;;;;6238820;22;20015;-78
2022/03/05 15:48:43;;;;;;;23.08;11.15;;;7.30;55.80;;;;;;6287340;22;20014;-81
2022/03/05 15:51:11;;;;;;;22.48;11.05;;;7.20;55.20;;;;;;6230137;22;20011;-81
2022/03/05 15:53:38;;;;;;;19.58;10.75;;;7.10;55.20;;;;;;6314760;22;20015;-82
2022/03/05 15:56:05;;;;;;;18.97;10.23;;;7.10;55.40;;;;;;6289227;22;20022;-82
2022/03/05 15:58:31;;;;;;;21.13;11.68;;;7.10;55.10;;;;;;6289595;22;20188;-82
2022/03/05 16:01:02;;;;;;;;;;;7.10;55.50;;;;;;6289310;22;20007;-82
2022/03/05 16:03:28;;;;;;;22.65;11.05;;;7.10;55.20;;;;;;6287832;22;19903;-81
2022/03/05 16:05:55;;;;;;;25.13;10.95;;;7.00;55.20;;;;;;6314375;22;20295;-81
2022/03/05 16:08:21;;;;;;;21.00;12.00;;;7.00;55.80;;;;;;6315023;22;20011;-81
2022/03/05 16:10:47;;;;;;;20.65;11.32;;;7.10;56.00;;;;;;6314180;22;20007;-82
2022/03/05 16:13:13;;;;;;;20.27;12.33;;;7.10;56.10;;;;;;6289293;22;20295;-81
2022/03/05 16:15:40;;;;;;;27.42;13.50;;;7.00;55.60;;;;;;6289243;22;20083;-81
2022/03/05 16:18:05;;;;;;;26.17;13.20;;;6.90;56.30;;;;;;6263461;22;20554;-81
2022/03/05 16:20:32;;;;;;;26.63;14.30;;;6.90;57.00;;;;;;6235759;22;20270;-82
2022/03/05 16:22:58;;;;;;;29.10;16.15;;;6.80;57.30;;;;;;6289602;22;20066;-82
2022/03/05 16:25:24;;;;;;;33.83;15.75;;;6.70;57.60;;;;;;6287975;22;20395;-81
2022/03/05 16:27:51;;;;;;;38.13;17.05;;;6.70;58.00;;;;;;6238487;22;20020;-82